createdAt,value
2022-08-04T00:01:23.751Z,23.50
2022-08-04T00:05:10.342Z,23.50
2022-08-04T00:08:58.133Z,23.50
2022-08-04T00:12:45.227Z,23.60
2022-08-04T00:16:34.817Z,23.60
2022-08-04T00:20:22.290Z,23.60
2022-08-04T00:24:11.774Z,23.60
2022-08-04T00:27:55.698Z,23.60
2022-08-04T00:31:57.001Z,23.60
2022-08-04T00:35:40.704Z,23.50
2022-08-04T00:39:25.361Z,23.50
2022-08-04T00:43:16.207Z,23.50
2022-08-04T00:47:08.920Z,23.50
2022-08-04T00:51:00.644Z,23.50
2022-08-04T00:55:11.261Z,23.50
2022-08-04T00:59:05.257Z,23.40
2022-08-04T01:03:02.999Z,23.40
2022-08-04T01:06:56.219Z,23.30
2022-08-04T01:10:47.913Z,23.30
2022-08-04T01:14:58.526Z,23.20
2022-08-04T01:18:53.689Z,23.30
2022-08-04T01:23:21.372Z,23.30
2022-08-04T01:27:10.774Z,23.30
2022-08-04T01:30:59.304Z,23.30
2022-08-04T01:34:46.756Z,23.20
2022-08-04T01:38:32.349Z,23.20
2022-08-04T01:42:31.427Z,23.20
2022-08-04T01:46:17.923Z,23.20
2022-08-04T01:50:06.220Z,23.10
2022-08-04T01:53:48.769Z,23.20
2022-08-04T01:57:37.953Z,23.10
2022-08-04T02:01:23.036Z,23.10
2022-08-04T02:05:06.568Z,23.10
2022-08-04T02:08:56.049Z,23.10
2022-08-04T02:12:54.589Z,23.10
2022-08-04T02:16:52.478Z,23.10
2022-08-04T02:20:38.805Z,23.10
2022-08-04T02:24:27.455Z,23.10
2022-08-04T02:28:23.157Z,23.10
2022-08-04T02:32:12.816Z,23.10
2022-08-04T02:36:02.394Z,23.10
2022-08-04T02:39:48.807Z,23.10
2022-08-04T02:43:52.211Z,23.10
2022-08-04T02:48:25.196Z,23.00
2022-08-04T02:51:46.378Z,23.00
2022-08-04T02:55:31.009Z,23.00
2022-08-04T02:59:15.310Z,22.90
2022-08-04T03:03:13.161Z,22.80
2022-08-04T03:07:41.705Z,22.80
2022-08-04T03:11:38.918Z,22.80
2022-08-04T03:15:41.645Z,22.80
2022-08-04T03:20:02.180Z,22.70
2022-08-04T03:24:23.697Z,22.70
2022-08-04T03:29:03.702Z,22.70
2022-08-04T03:33:23.384Z,22.70
2022-08-04T03:37:38.182Z,22.70
2022-08-04T03:41:51.915Z,22.70
2022-08-04T03:46:27.629Z,22.70
2022-08-04T03:50:42.835Z,22.80
2022-08-04T03:55:23.055Z,22.90
2022-08-04T03:59:28.017Z,22.80
2022-08-04T04:03:40.436Z,22.80
2022-08-04T04:08:18.718Z,22.80
2022-08-04T04:12:36.337Z,22.80
2022-08-04T04:16:30.043Z,22.80
2022-08-04T04:20:34.340Z,22.70
2022-08-04T04:24:40.217Z,22.80
2022-08-04T04:28:47.129Z,22.90
2022-08-04T04:32:39.808Z,23.00
2022-08-04T04:36:33.079Z,23.00
2022-08-04T04:40:28.668Z,23.10
2022-08-04T04:44:34.226Z,23.20
2022-08-04T04:48:31.384Z,23.40
2022-08-04T04:52:23.775Z,23.50
2022-08-04T04:56:16.255Z,23.60
2022-08-04T05:00:03.396Z,23.60
2022-08-04T05:04:03.763Z,23.60
2022-08-04T05:08:44.929Z,23.70
2022-08-04T05:14:30.898Z,23.80
2022-08-04T05:16:49.975Z,23.90
2022-08-04T05:20:45.453Z,24.00
2022-08-04T05:24:30.271Z,24.10
2022-08-04T05:28:21.617Z,24.20
2022-08-04T05:32:11.261Z,24.30
2022-08-04T05:36:20.766Z,24.40
2022-08-04T05:40:06.111Z,24.50
2022-08-04T05:43:51.075Z,24.70
2022-08-04T05:47:36.087Z,24.80
2022-08-04T05:51:19.903Z,24.90
2022-08-04T05:55:03.730Z,25.10
2022-08-04T05:58:48.141Z,25.20
2022-08-04T06:02:31.986Z,25.40
2022-08-04T06:06:18.632Z,25.60
2022-08-04T06:10:01.891Z,25.70
2022-08-04T06:13:51.030Z,25.90
2022-08-04T06:19:56.991Z,25.90
2022-08-04T06:21:44.481Z,25.90
2022-08-04T06:25:32.160Z,25.80
2022-08-04T06:29:26.596Z,25.50
2022-08-04T06:33:24.591Z,25.70
2022-08-04T06:37:09.550Z,25.80
2022-08-04T06:40:53.815Z,26.10
2022-08-04T06:44:37.122Z,26.30
2022-08-04T06:48:20.995Z,26.60
2022-08-04T06:52:06.529Z,26.70
2022-08-04T06:55:52.584Z,27.00
2022-08-04T06:59:35.685Z,27.00
2022-08-04T07:03:21.565Z,27.10
2022-08-04T07:07:04.371Z,27.20
2022-08-04T07:10:47.557Z,27.30
2022-08-04T07:14:36.143Z,27.40
2022-08-04T07:18:19.113Z,27.60
2022-08-04T07:22:18.828Z,27.70
2022-08-04T07:26:13.036Z,27.80
2022-08-04T07:29:58.337Z,27.90
2022-08-04T07:33:43.705Z,27.90
2022-08-04T07:37:38.856Z,27.90
2022-08-04T07:41:40.298Z,28.10
2022-08-04T07:45:25.598Z,28.40
2022-08-04T07:49:08.735Z,28.60
2022-08-04T07:53:15.326Z,28.60
2022-08-04T07:56:55.489Z,28.60
2022-08-04T08:00:40.759Z,28.70
2022-08-04T08:04:24.620Z,28.80
2022-08-04T08:08:08.595Z,29.10
2022-08-04T08:12:37.904Z,29.30
2022-08-04T08:15:58.680Z,29.10
2022-08-04T08:19:41.696Z,29.50
2022-08-04T08:23:25.340Z,29.70
2022-08-04T08:27:08.477Z,30.00
2022-08-04T08:30:52.749Z,29.90
2022-08-04T08:34:39.037Z,30.30
2022-08-04T08:38:28.623Z,30.30
2022-08-04T08:42:37.658Z,30.30
2022-08-04T08:46:50.068Z,30.40
2022-08-04T08:50:54.291Z,30.40
2022-08-04T08:54:57.797Z,30.30
2022-08-04T08:58:52.692Z,30.40
2022-08-04T09:03:09.503Z,30.50
2022-08-04T09:07:19.764Z,30.60
2022-08-04T09:11:11.166Z,30.60
2022-08-04T09:15:00.466Z,30.60
2022-08-04T09:18:49.213Z,30.70
2022-08-04T09:22:42.793Z,30.60
2022-08-04T09:26:35.722Z,30.60
2022-08-04T09:30:23.021Z,30.90
2022-08-04T09:34:15.358Z,30.80
2022-08-04T09:38:03.445Z,30.70
2022-08-04T09:42:00.996Z,30.60
2022-08-04T09:45:51.635Z,30.80
2022-08-04T09:49:41.191Z,30.70
2022-08-04T09:53:51.328Z,30.90
2022-08-04T09:57:46.180Z,31.00
2022-08-04T10:01:32.024Z,31.10
2022-08-04T10:05:18.111Z,31.10
2022-08-04T10:09:17.807Z,31.20
2022-08-04T10:13:25.391Z,31.30
2022-08-04T10:17:23.284Z,31.40
2022-08-04T10:21:15.657Z,31.40
2022-08-04T10:26:05.008Z,31.50
2022-08-04T10:29:15.574Z,31.30
2022-08-04T10:33:05.208Z,31.30
2022-08-04T10:36:57.666Z,31.50
2022-08-04T10:40:46.690Z,31.50
2022-08-04T10:44:42.051Z,31.70
2022-08-04T10:48:35.326Z,31.60
2022-08-04T10:52:25.923Z,31.70
2022-08-04T10:56:18.866Z,32.00
2022-08-04T11:00:05.067Z,32.10
2022-08-04T11:03:55.751Z,32.20
2022-08-04T11:07:40.321Z,32.10
2022-08-04T11:11:29.798Z,32.30
2022-08-04T11:15:16.710Z,32.50
2022-08-04T11:19:16.431Z,32.20
2022-08-04T11:23:07.211Z,32.20
2022-08-04T11:26:57.481Z,32.30
2022-08-04T11:30:48.677Z,32.50
2022-08-04T11:34:35.413Z,32.40
2022-08-04T11:38:24.164Z,32.40
2022-08-04T11:42:21.351Z,32.30
2022-08-04T11:46:10.537Z,32.20
2022-08-04T11:49:59.592Z,32.70
2022-08-04T11:53:43.728Z,32.60
2022-08-04T11:57:36.037Z,32.60
2022-08-04T12:01:26.670Z,32.80
2022-08-04T12:05:35.277Z,33.00
2022-08-04T12:09:21.445Z,32.80
2022-08-04T12:13:23.619Z,32.40
2022-08-04T12:17:08.561Z,32.40
2022-08-04T12:20:56.318Z,32.30
2022-08-04T12:24:45.904Z,32.50
2022-08-04T12:28:52.429Z,32.50
2022-08-04T12:32:48.323Z,32.50
2022-08-04T12:36:41.400Z,32.80
2022-08-04T12:40:30.005Z,32.70
2022-08-04T12:44:36.364Z,33.00
2022-08-04T12:48:21.600Z,33.20
2022-08-04T12:52:09.382Z,33.70
2022-08-04T12:56:01.341Z,33.80
2022-08-04T12:59:57.086Z,33.50
2022-08-04T13:03:43.747Z,33.40
2022-08-04T13:07:29.841Z,33.30
2022-08-04T13:11:13.234Z,33.30
2022-08-04T13:15:10.470Z,33.60
2022-08-04T13:19:05.323Z,33.90
2022-08-04T13:22:48.044Z,34.20
2022-08-04T13:26:42.974Z,34.20
2022-08-04T13:30:38.113Z,33.80
2022-08-04T13:34:21.128Z,33.90
2022-08-04T13:38:04.928Z,33.80
2022-08-04T13:41:56.965Z,33.60
2022-08-04T13:45:43.296Z,33.50
2022-08-04T13:49:38.001Z,33.60
2022-08-04T13:53:31.274Z,33.40
2022-08-04T13:57:19.411Z,33.50
2022-08-04T14:01:06.918Z,33.60
2022-08-04T14:04:57.146Z,33.70
2022-08-04T14:08:51.470Z,33.90
2022-08-04T14:12:45.399Z,33.80
2022-08-04T14:16:31.097Z,33.50
2022-08-04T14:20:13.670Z,33.90
2022-08-04T14:23:58.257Z,33.90
2022-08-04T14:27:46.553Z,33.70
2022-08-04T14:31:31.169Z,33.60
2022-08-04T14:35:14.412Z,33.80
2022-08-04T14:39:00.446Z,33.90
2022-08-04T14:42:54.649Z,34.00
2022-08-04T14:46:52.522Z,34.20
2022-08-04T14:50:38.838Z,34.30
2022-08-04T14:54:28.265Z,34.60
2022-08-04T14:58:34.553Z,34.40
2022-08-04T15:02:23.793Z,34.20
2022-08-04T15:06:16.156Z,34.10
2022-08-04T15:10:01.337Z,34.10
2022-08-04T15:13:43.993Z,34.30
2022-08-04T15:17:30.519Z,34.30
2022-08-04T15:21:15.514Z,34.60
2022-08-04T15:24:58.124Z,34.80
2022-08-04T15:28:43.348Z,34.90
2022-08-04T15:32:29.438Z,35.00
2022-08-04T15:36:16.380Z,35.10
2022-08-04T15:40:05.234Z,35.10
2022-08-04T15:43:57.115Z,35.10
2022-08-04T15:47:41.768Z,35.10
2022-08-04T15:51:34.518Z,35.10
2022-08-04T15:55:35.602Z,35.20
2022-08-04T15:59:59.965Z,35.40
2022-08-04T16:03:59.572Z,35.60
2022-08-04T16:07:58.256Z,35.30
2022-08-04T16:11:41.226Z,35.20
2022-08-04T16:15:38.781Z,35.50
2022-08-04T16:19:35.551Z,35.60
2022-08-04T16:23:58.096Z,35.60
2022-08-04T16:27:45.315Z,35.60
2022-08-04T16:31:27.877Z,35.30
2022-08-04T16:35:27.932Z,35.30
2022-08-04T16:39:20.034Z,35.50
2022-08-04T16:43:05.063Z,35.50
2022-08-04T16:47:08.329Z,35.30
2022-08-04T16:51:03.225Z,35.20
2022-08-04T16:54:47.986Z,35.30
2022-08-04T16:58:32.608Z,35.00
2022-08-04T17:02:15.752Z,34.90
2022-08-04T17:06:11.618Z,35.10
2022-08-04T17:09:55.365Z,35.20
2022-08-04T17:14:02.564Z,35.20
2022-08-04T17:18:05.605Z,35.20
2022-08-04T17:21:46.958Z,35.60
2022-08-04T17:25:52.132Z,35.60
2022-08-04T17:29:43.785Z,35.50
2022-08-04T17:37:40.706Z,35.90
2022-08-04T17:41:30.559Z,35.80
2022-08-04T17:49:25.612Z,35.70
2022-08-04T17:53:13.366Z,35.50
2022-08-04T17:56:58.365Z,35.50
2022-08-04T18:00:41.597Z,35.50
2022-08-04T18:04:33.801Z,35.30
2022-08-04T18:08:39.248Z,35.10
2022-08-04T18:12:24.398Z,34.40
2022-08-04T18:16:14.579Z,33.70
2022-08-04T18:20:07.814Z,33.30
2022-08-04T18:23:52.489Z,32.80
2022-08-04T18:27:35.383Z,32.50
2022-08-04T18:31:18.429Z,32.20
2022-08-04T18:35:05.670Z,31.90
2022-08-04T18:38:55.893Z,31.60
2022-08-04T18:42:42.042Z,31.30
2022-08-04T18:46:27.185Z,31.00
2022-08-04T18:50:59.982Z,30.60
2022-08-04T18:54:14.380Z,30.30
2022-08-04T18:57:58.945Z,29.90
2022-08-04T19:02:17.537Z,29.60
2022-08-04T19:05:48.593Z,29.30
2022-08-04T19:09:51.184Z,29.10
2022-08-04T19:13:35.245Z,28.80
2022-08-04T19:17:18.165Z,28.60
2022-08-04T19:22:01.379Z,28.40
2022-08-04T19:25:58.913Z,28.20
2022-08-04T19:33:58.814Z,27.80
2022-08-04T19:37:58.032Z,27.70
2022-08-04T19:42:04.821Z,27.50
2022-08-04T19:45:43.729Z,27.40
2022-08-04T19:50:05.114Z,27.20
2022-08-04T19:53:37.113Z,27.10
2022-08-04T19:57:22.758Z,27.00
2022-08-04T20:01:31.424Z,26.90
2022-08-04T20:05:18.042Z,26.70
2022-08-04T20:09:25.301Z,26.60
2022-08-04T20:13:10.875Z,26.60
2022-08-04T20:16:53.390Z,26.50
2022-08-04T20:20:36.754Z,26.40
2022-08-04T20:24:38.680Z,26.30
2022-08-04T20:28:36.454Z,26.30
2022-08-04T20:32:22.184Z,26.20
2022-08-04T20:36:06.725Z,26.10
2022-08-04T20:39:54.810Z,26.00
2022-08-04T20:43:39.611Z,25.90
2022-08-04T20:47:26.114Z,25.90
2022-08-04T20:51:12.927Z,25.80
2022-08-04T20:54:58.448Z,25.70
2022-08-04T20:58:42.801Z,25.60
2022-08-04T21:02:25.802Z,25.60
2022-08-04T21:06:10.364Z,25.60
2022-08-04T21:09:53.507Z,25.50
2022-08-04T21:13:51.848Z,25.50
2022-08-04T21:17:59.019Z,25.40
2022-08-04T21:21:41.171Z,25.30
2022-08-04T21:25:24.832Z,25.20
2022-08-04T21:29:07.881Z,25.20
2022-08-04T21:32:53.382Z,25.10
2022-08-04T21:36:37.965Z,25.10
2022-08-04T21:40:32.808Z,25.00
2022-08-04T21:44:19.087Z,25.00
2022-08-04T21:48:03.196Z,25.00
2022-08-04T21:51:58.025Z,24.90
2022-08-04T21:56:04.366Z,24.80
2022-08-04T21:59:45.984Z,24.80
2022-08-04T22:03:52.681Z,24.70
2022-08-04T22:07:50.437Z,24.70
2022-08-04T22:11:43.929Z,24.70
2022-08-04T22:16:05.233Z,24.70
2022-08-04T22:19:50.027Z,24.60
2022-08-04T22:23:44.997Z,24.60
2022-08-04T22:27:47.711Z,24.60
2022-08-04T22:31:56.224Z,24.60
2022-08-04T22:52:56.368Z,24.20
2022-08-04T22:56:39.358Z,24.20
2022-08-04T23:00:28.645Z,24.30
2022-08-04T23:04:11.324Z,24.40
2022-08-04T23:07:55.106Z,24.50
2022-08-04T23:11:43.227Z,24.60
2022-08-04T23:15:26.661Z,24.60
2022-08-04T23:19:16.440Z,24.60
2022-08-04T23:23:00.342Z,24.50
2022-08-04T23:26:57.562Z,24.60
2022-08-04T23:30:40.884Z,24.60
2022-08-04T23:34:29.212Z,24.60
2022-08-04T23:38:31.799Z,24.60
2022-08-04T23:42:20.929Z,24.60
2022-08-04T23:46:08.191Z,24.70
2022-08-04T23:49:51.079Z,24.90
2022-08-04T23:54:01.630Z,24.90
2022-08-04T23:58:06.216Z,25.20
